sensor_id;sensor_type;location;lat;lon;timestamp;P1;durP1;ratioP1;P2;durP2;ratioP2
55368;SDS011;41247;49.736;8.752;2022-09-03T00:00:28;3.13;;;0.60;;
55368;SDS011;41247;49.736;8.752;2022-09-03T00:04:36;4.28;;;0.73;;
55368;SDS011;41247;49.736;8.752;2022-09-03T00:08:47;3.65;;;0.60;;
55368;SDS011;41247;49.736;8.752;2022-09-03T00:12:37;1.85;;;0.63;;
55368;SDS011;41247;49.736;8.752;2022-09-03T00:16:23;6.75;;;0.68;;
55368;SDS011;41247;49.736;8.752;2022-09-03T00:20:32;0.90;;;0.65;;
55368;SDS011;41247;49.736;8.752;2022-09-03T00:24:14;2.95;;;0.70;;
55368;SDS011;41247;49.736;8.752;2022-09-03T00:27:58;2.05;;;0.70;;
55368;SDS011;41247;49.736;8.752;2022-09-03T00:31:46;1.60;;;0.70;;
55368;SDS011;41247;49.736;8.752;2022-09-03T00:35:54;3.05;;;0.70;;
55368;SDS011;41247;49.736;8.752;2022-09-03T00:39:46;1.10;;;0.68;;
55368;SDS011;41247;49.736;8.752;2022-09-03T00:43:43;2.35;;;0.75;;
55368;SDS011;41247;49.736;8.752;2022-09-03T00:48:01;2.15;;;0.60;;
55368;SDS011;41247;49.736;8.752;2022-09-03T00:52:01;1.38;;;0.82;;
55368;SDS011;41247;49.736;8.752;2022-09-03T00:55:51;3.45;;;1.10;;
55368;SDS011;41247;49.736;8.752;2022-09-03T00:59:51;6.38;;;0.90;;
55368;SDS011;41247;49.736;8.752;2022-09-03T01:04:07;1.00;;;0.80;;
55368;SDS011;41247;49.736;8.752;2022-09-03T01:12:23;2.15;;;0.70;;
55368;SDS011;41247;49.736;8.752;2022-09-03T01:16:23;2.22;;;0.70;;
55368;SDS011;41247;49.736;8.752;2022-09-03T01:49:54;4.75;;;0.80;;
55368;SDS011;41247;49.736;8.752;2022-09-03T01:58:22;1.25;;;0.75;;
55368;SDS011;41247;49.736;8.752;2022-09-03T02:02:19;1.13;;;0.80;;
55368;SDS011;41247;49.736;8.752;2022-09-03T02:06:02;3.40;;;0.85;;
55368;SDS011;41247;49.736;8.752;2022-09-03T02:09:43;2.08;;;0.80;;
55368;SDS011;41247;49.736;8.752;2022-09-03T02:17:11;1.83;;;0.70;;
55368;SDS011;41247;49.736;8.752;2022-09-03T02:20:52;2.35;;;0.90;;
55368;SDS011;41247;49.736;8.752;2022-09-03T02:24:34;2.10;;;0.70;;
55368;SDS011;41247;49.736;8.752;2022-09-03T02:28:14;1.50;;;0.90;;
55368;SDS011;41247;49.736;8.752;2022-09-03T02:31:56;3.08;;;0.73;;
55368;SDS011;41247;49.736;8.752;2022-09-03T02:35:38;3.13;;;0.77;;
55368;SDS011;41247;49.736;8.752;2022-09-03T02:39:19;1.95;;;0.80;;
55368;SDS011;41247;49.736;8.752;2022-09-03T02:43:02;2.92;;;0.90;;
55368;SDS011;41247;49.736;8.752;2022-09-03T02:46:49;4.50;;;0.88;;
55368;SDS011;41247;49.736;8.752;2022-09-03T02:50:41;1.00;;;0.80;;
55368;SDS011;41247;49.736;8.752;2022-09-03T02:54:22;2.45;;;0.90;;
55368;SDS011;41247;49.736;8.752;2022-09-03T02:58:02;2.75;;;0.80;;
55368;SDS011;41247;49.736;8.752;2022-09-03T03:01:43;1.75;;;0.80;;
55368;SDS011;41247;49.736;8.752;2022-09-03T03:05:25;2.53;;;0.93;;
55368;SDS011;41247;49.736;8.752;2022-09-03T03:09:18;1.83;;;0.88;;
55368;SDS011;41247;49.736;8.752;2022-09-03T03:12:59;0.70;;;0.70;;
55368;SDS011;41247;49.736;8.752;2022-09-03T03:16:39;1.15;;;0.80;;
55368;SDS011;41247;49.736;8.752;2022-09-03T03:20:20;2.40;;;1.02;;
55368;SDS011;41247;49.736;8.752;2022-09-03T03:24:01;1.40;;;0.90;;
55368;SDS011;41247;49.736;8.752;2022-09-03T03:27:42;3.25;;;0.80;;
55368;SDS011;41247;49.736;8.752;2022-09-03T03:31:23;1.95;;;0.80;;
55368;SDS011;41247;49.736;8.752;2022-09-03T03:35:04;2.88;;;0.90;;
55368;SDS011;41247;49.736;8.752;2022-09-03T03:38:46;2.50;;;1.00;;
55368;SDS011;41247;49.736;8.752;2022-09-03T03:42:27;3.13;;;0.95;;
55368;SDS011;41247;49.736;8.752;2022-09-03T03:46:07;2.35;;;0.73;;
55368;SDS011;41247;49.736;8.752;2022-09-03T03:49:49;1.13;;;0.85;;
55368;SDS011;41247;49.736;8.752;2022-09-03T03:53:30;1.58;;;0.90;;
55368;SDS011;41247;49.736;8.752;2022-09-03T03:57:11;4.30;;;0.90;;
55368;SDS011;41247;49.736;8.752;2022-09-03T04:00:52;4.50;;;0.90;;
55368;SDS011;41247;49.736;8.752;2022-09-03T04:04:32;1.00;;;0.90;;
55368;SDS011;41247;49.736;8.752;2022-09-03T04:08:13;3.00;;;1.00;;
55368;SDS011;41247;49.736;8.752;2022-09-03T04:11:53;1.48;;;0.93;;
55368;SDS011;41247;49.736;8.752;2022-09-03T04:15:34;2.35;;;0.93;;
55368;SDS011;41247;49.736;8.752;2022-09-03T04:19:15;1.08;;;0.70;;
55368;SDS011;41247;49.736;8.752;2022-09-03T04:22:59;1.67;;;0.98;;
55368;SDS011;41247;49.736;8.752;2022-09-03T04:26:41;3.22;;;1.02;;
55368;SDS011;41247;49.736;8.752;2022-09-03T04:30:21;2.47;;;0.98;;
55368;SDS011;41247;49.736;8.752;2022-09-03T04:34:02;1.52;;;1.00;;
55368;SDS011;41247;49.736;8.752;2022-09-03T04:37:44;1.73;;;0.90;;
55368;SDS011;41247;49.736;8.752;2022-09-03T04:41:26;1.40;;;0.70;;
55368;SDS011;41247;49.736;8.752;2022-09-03T04:45:09;1.70;;;0.98;;
55368;SDS011;41247;49.736;8.752;2022-09-03T04:48:51;2.88;;;1.15;;
55368;SDS011;41247;49.736;8.752;2022-09-03T04:52:33;2.53;;;0.80;;
55368;SDS011;41247;49.736;8.752;2022-09-03T04:56:14;1.55;;;1.20;;
55368;SDS011;41247;49.736;8.752;2022-09-03T04:59:58;2.65;;;0.90;;
55368;SDS011;41247;49.736;8.752;2022-09-03T05:03:39;1.95;;;1.00;;
55368;SDS011;41247;49.736;8.752;2022-09-03T05:07:20;2.67;;;1.23;;
55368;SDS011;41247;49.736;8.752;2022-09-03T05:11:00;2.88;;;1.20;;
55368;SDS011;41247;49.736;8.752;2022-09-03T05:14:45;1.58;;;1.02;;
55368;SDS011;41247;49.736;8.752;2022-09-03T05:18:26;3.35;;;0.90;;
55368;SDS011;41247;49.736;8.752;2022-09-03T05:22:07;2.25;;;0.98;;
55368;SDS011;41247;49.736;8.752;2022-09-03T05:25:58;3.97;;;1.23;;
55368;SDS011;41247;49.736;8.752;2022-09-03T05:29:57;2.40;;;0.80;;
55368;SDS011;41247;49.736;8.752;2022-09-03T05:33:39;1.10;;;0.93;;
55368;SDS011;41247;49.736;8.752;2022-09-03T05:37:23;7.22;;;1.00;;
55368;SDS011;41247;49.736;8.752;2022-09-03T05:41:09;2.90;;;1.00;;
55368;SDS011;41247;49.736;8.752;2022-09-03T05:44:55;2.28;;;0.93;;
55368;SDS011;41247;49.736;8.752;2022-09-03T05:48:39;2.50;;;1.17;;
55368;SDS011;41247;49.736;8.752;2022-09-03T05:52:20;2.42;;;1.00;;
55368;SDS011;41247;49.736;8.752;2022-09-03T05:56:02;3.45;;;1.27;;
55368;SDS011;41247;49.736;8.752;2022-09-03T05:59:50;2.25;;;1.10;;
55368;SDS011;41247;49.736;8.752;2022-09-03T06:03:31;7.10;;;2.00;;
55368;SDS011;41247;49.736;8.752;2022-09-03T06:07:12;3.60;;;1.55;;
55368;SDS011;41247;49.736;8.752;2022-09-03T06:11:01;1.75;;;1.40;;
55368;SDS011;41247;49.736;8.752;2022-09-03T06:14:42;5.50;;;1.42;;
55368;SDS011;41247;49.736;8.752;2022-09-03T06:18:23;3.17;;;1.67;;
55368;SDS011;41247;49.736;8.752;2022-09-03T06:22:05;4.45;;;1.40;;
55368;SDS011;41247;49.736;8.752;2022-09-03T06:25:46;1.65;;;1.40;;
55368;SDS011;41247;49.736;8.752;2022-09-03T06:29:27;4.93;;;1.60;;
55368;SDS011;41247;49.736;8.752;2022-09-03T06:33:07;3.28;;;1.58;;
55368;SDS011;41247;49.736;8.752;2022-09-03T06:36:48;1.95;;;1.65;;
55368;SDS011;41247;49.736;8.752;2022-09-03T06:40:28;1.50;;;1.40;;
55368;SDS011;41247;49.736;8.752;2022-09-03T06:44:09;2.63;;;1.58;;
55368;SDS011;41247;49.736;8.752;2022-09-03T06:47:50;4.00;;;1.50;;
55368;SDS011;41247;49.736;8.752;2022-09-03T06:51:30;2.30;;;1.73;;
55368;SDS011;41247;49.736;8.752;2022-09-03T06:55:12;2.67;;;1.60;;
55368;SDS011;41247;49.736;8.752;2022-09-03T06:58:56;3.63;;;1.50;;
55368;SDS011;41247;49.736;8.752;2022-09-03T07:02:39;2.85;;;1.50;;
55368;SDS011;41247;49.736;8.752;2022-09-03T07:06:20;4.18;;;1.70;;
55368;SDS011;41247;49.736;8.752;2022-09-03T07:10:03;3.42;;;1.40;;
55368;SDS011;41247;49.736;8.752;2022-09-03T07:13:46;3.25;;;1.42;;
55368;SDS011;41247;49.736;8.752;2022-09-03T07:17:29;3.75;;;1.48;;
55368;SDS011;41247;49.736;8.752;2022-09-03T07:21:13;1.52;;;1.40;;
55368;SDS011;41247;49.736;8.752;2022-09-03T07:24:57;4.20;;;1.50;;
55368;SDS011;41247;49.736;8.752;2022-09-03T07:28:38;2.40;;;1.60;;
55368;SDS011;41247;49.736;8.752;2022-09-03T07:32:20;2.38;;;1.75;;
55368;SDS011;41247;49.736;8.752;2022-09-03T07:36:01;3.90;;;1.88;;
55368;SDS011;41247;49.736;8.752;2022-09-03T07:39:43;1.80;;;1.50;;
55368;SDS011;41247;49.736;8.752;2022-09-03T07:43:25;4.07;;;1.90;;
55368;SDS011;41247;49.736;8.752;2022-09-03T07:47:19;3.20;;;1.63;;
55368;SDS011;41247;49.736;8.752;2022-09-03T07:50:59;3.20;;;1.88;;
55368;SDS011;41247;49.736;8.752;2022-09-03T07:54:40;1.77;;;1.60;;
55368;SDS011;41247;49.736;8.752;2022-09-03T07:58:21;2.75;;;1.73;;
55368;SDS011;41247;49.736;8.752;2022-09-03T08:02:02;3.17;;;2.10;;
55368;SDS011;41247;49.736;8.752;2022-09-03T08:05:42;2.42;;;1.80;;
55368;SDS011;41247;49.736;8.752;2022-09-03T08:09:23;1.88;;;1.75;;
55368;SDS011;41247;49.736;8.752;2022-09-03T08:13:03;4.55;;;2.22;;
55368;SDS011;41247;49.736;8.752;2022-09-03T08:16:45;3.28;;;2.08;;
55368;SDS011;41247;49.736;8.752;2022-09-03T08:20:26;7.78;;;2.10;;
55368;SDS011;41247;49.736;8.752;2022-09-03T08:24:07;3.40;;;2.50;;
55368;SDS011;41247;49.736;8.752;2022-09-03T08:27:48;3.58;;;2.10;;
55368;SDS011;41247;49.736;8.752;2022-09-03T08:31:29;2.40;;;2.05;;
55368;SDS011;41247;49.736;8.752;2022-09-03T08:35:10;3.58;;;2.30;;
55368;SDS011;41247;49.736;8.752;2022-09-03T08:38:53;2.75;;;2.20;;
55368;SDS011;41247;49.736;8.752;2022-09-03T08:42:43;1.95;;;1.75;;
55368;SDS011;41247;49.736;8.752;2022-09-03T08:50:35;4.57;;;2.17;;
55368;SDS011;41247;49.736;8.752;2022-09-03T08:54:23;3.65;;;1.83;;
55368;SDS011;41247;49.736;8.752;2022-09-03T08:58:15;4.50;;;1.70;;
55368;SDS011;41247;49.736;8.752;2022-09-03T09:14:26;2.83;;;2.00;;
55368;SDS011;41247;49.736;8.752;2022-09-03T09:22:31;6.22;;;2.30;;
55368;SDS011;41247;49.736;8.752;2022-09-03T09:26:22;4.57;;;2.22;;
55368;SDS011;41247;49.736;8.752;2022-09-03T09:30:03;3.97;;;2.38;;
55368;SDS011;41247;49.736;8.752;2022-09-03T09:33:45;3.30;;;2.53;;
55368;SDS011;41247;49.736;8.752;2022-09-03T09:37:25;4.07;;;2.50;;
55368;SDS011;41247;49.736;8.752;2022-09-03T09:45:07;4.38;;;2.67;;
55368;SDS011;41247;49.736;8.752;2022-09-03T09:52:32;3.57;;;2.10;;
55368;SDS011;41247;49.736;8.752;2022-09-03T09:56:23;6.03;;;2.80;;
55368;SDS011;41247;49.736;8.752;2022-09-03T10:00:08;2.90;;;2.65;;
55368;SDS011;41247;49.736;8.752;2022-09-03T10:03:56;3.53;;;2.42;;
55368;SDS011;41247;49.736;8.752;2022-09-03T10:07:39;4.55;;;2.70;;
55368;SDS011;41247;49.736;8.752;2022-09-03T10:11:20;3.10;;;2.58;;
55368;SDS011;41247;49.736;8.752;2022-09-03T10:19:05;5.05;;;3.08;;
55368;SDS011;41247;49.736;8.752;2022-09-03T10:26:44;4.90;;;3.50;;
55368;SDS011;41247;49.736;8.752;2022-09-03T10:30:24;4.97;;;3.88;;
55368;SDS011;41247;49.736;8.752;2022-09-03T10:34:07;6.13;;;3.83;;
55368;SDS011;41247;49.736;8.752;2022-09-03T10:39:00;3.35;;;3.03;;
55368;SDS011;41247;49.736;8.752;2022-09-03T10:50:46;3.67;;;2.88;;
55368;SDS011;41247;49.736;8.752;2022-09-03T10:58:47;3.70;;;3.05;;
55368;SDS011;41247;49.736;8.752;2022-09-03T11:07:13;2.58;;;2.30;;
55368;SDS011;41247;49.736;8.752;2022-09-03T11:11:22;2.83;;;2.05;;
55368;SDS011;41247;49.736;8.752;2022-09-03T11:15:22;2.53;;;1.92;;
55368;SDS011;41247;49.736;8.752;2022-09-03T11:19:18;2.17;;;1.60;;
55368;SDS011;41247;49.736;8.752;2022-09-03T11:23:12;2.03;;;1.45;;
55368;SDS011;41247;49.736;8.752;2022-09-03T11:26:59;1.75;;;1.65;;
55368;SDS011;41247;49.736;8.752;2022-09-03T11:31:04;2.25;;;2.05;;
55368;SDS011;41247;49.736;8.752;2022-09-03T11:34:57;3.83;;;2.15;;
55368;SDS011;41247;49.736;8.752;2022-09-03T11:38:38;3.45;;;2.65;;
55368;SDS011;41247;49.736;8.752;2022-09-03T11:46:29;1.80;;;1.70;;
55368;SDS011;41247;49.736;8.752;2022-09-03T11:50:17;2.67;;;1.50;;
55368;SDS011;41247;49.736;8.752;2022-09-03T11:54:23;1.50;;;1.17;;
55368;SDS011;41247;49.736;8.752;2022-09-03T11:58:11;2.05;;;1.70;;
55368;SDS011;41247;49.736;8.752;2022-09-03T12:10:33;1.50;;;1.40;;
55368;SDS011;41247;49.736;8.752;2022-09-03T12:14:28;3.25;;;1.67;;
55368;SDS011;41247;49.736;8.752;2022-09-03T12:18:45;1.65;;;1.23;;
55368;SDS011;41247;49.736;8.752;2022-09-03T12:22:28;1.60;;;1.50;;
55368;SDS011;41247;49.736;8.752;2022-09-03T12:26:17;2.72;;;1.88;;
55368;SDS011;41247;49.736;8.752;2022-09-03T12:30:00;1.58;;;1.48;;
55368;SDS011;41247;49.736;8.752;2022-09-03T12:33:44;2.35;;;1.50;;
55368;SDS011;41247;49.736;8.752;2022-09-03T12:37:25;1.85;;;1.73;;
55368;SDS011;41247;49.736;8.752;2022-09-03T12:41:19;1.45;;;1.30;;
55368;SDS011;41247;49.736;8.752;2022-09-03T12:48:52;1.98;;;1.40;;
55368;SDS011;41247;49.736;8.752;2022-09-03T12:52:47;1.27;;;1.17;;
55368;SDS011;41247;49.736;8.752;2022-09-03T12:56:32;1.55;;;1.20;;
55368;SDS011;41247;49.736;8.752;2022-09-03T13:00:15;2.30;;;1.20;;
55368;SDS011;41247;49.736;8.752;2022-09-03T13:04:04;3.05;;;1.20;;
55368;SDS011;41247;49.736;8.752;2022-09-03T13:07:53;2.15;;;1.42;;
55368;SDS011;41247;49.736;8.752;2022-09-03T13:11:37;1.33;;;1.02;;
55368;SDS011;41247;49.736;8.752;2022-09-03T13:15:20;3.25;;;1.30;;
55368;SDS011;41247;49.736;8.752;2022-09-03T13:23:25;1.92;;;1.40;;
55368;SDS011;41247;49.736;8.752;2022-09-03T13:27:22;2.25;;;1.30;;
55368;SDS011;41247;49.736;8.752;2022-09-03T13:31:15;1.75;;;1.20;;
55368;SDS011;41247;49.736;8.752;2022-09-03T13:35:08;1.25;;;1.10;;
55368;SDS011;41247;49.736;8.752;2022-09-03T13:39:04;2.08;;;1.40;;
55368;SDS011;41247;49.736;8.752;2022-09-03T13:43:26;5.57;;;1.30;;
55368;SDS011;41247;49.736;8.752;2022-09-03T13:47:30;1.67;;;1.17;;
55368;SDS011;41247;49.736;8.752;2022-09-03T13:51:30;3.27;;;1.00;;
55368;SDS011;41247;49.736;8.752;2022-09-03T14:11:34;2.53;;;1.20;;
55368;SDS011;41247;49.736;8.752;2022-09-03T14:19:40;3.72;;;1.20;;
55368;SDS011;41247;49.736;8.752;2022-09-03T14:23:39;1.13;;;0.90;;
55368;SDS011;41247;49.736;8.752;2022-09-03T14:27:30;1.75;;;0.93;;
55368;SDS011;41247;49.736;8.752;2022-09-03T14:31:13;3.40;;;0.90;;
55368;SDS011;41247;49.736;8.752;2022-09-03T14:35:43;1.00;;;0.70;;
55368;SDS011;41247;49.736;8.752;2022-09-03T15:01:02;0.88;;;0.70;;
55368;SDS011;41247;49.736;8.752;2022-09-03T15:13:24;1.48;;;0.90;;
55368;SDS011;41247;49.736;8.752;2022-09-03T15:21:45;0.70;;;0.70;;
55368;SDS011;41247;49.736;8.752;2022-09-03T15:30:15;6.13;;;1.40;;
55368;SDS011;41247;49.736;8.752;2022-09-03T15:42:46;3.40;;;1.45;;
55368;SDS011;41247;49.736;8.752;2022-09-03T15:50:54;2.90;;;1.80;;
55368;SDS011;41247;49.736;8.752;2022-09-03T15:55:34;2.17;;;2.08;;
55368;SDS011;41247;49.736;8.752;2022-09-03T16:06:56;2.20;;;2.00;;
55368;SDS011;41247;49.736;8.752;2022-09-03T16:19:21;2.38;;;2.17;;
55368;SDS011;41247;49.736;8.752;2022-09-03T16:23:29;4.63;;;2.40;;
55368;SDS011;41247;49.736;8.752;2022-09-03T16:27:42;2.92;;;2.53;;
55368;SDS011;41247;49.736;8.752;2022-09-03T16:31:58;3.20;;;2.33;;
55368;SDS011;41247;49.736;8.752;2022-09-03T16:52:30;4.75;;;3.20;;
55368;SDS011;41247;49.736;8.752;2022-09-03T17:00:25;4.25;;;3.13;;
55368;SDS011;41247;49.736;8.752;2022-09-03T17:12:43;4.00;;;3.08;;
55368;SDS011;41247;49.736;8.752;2022-09-03T17:25:35;5.17;;;3.60;;
55368;SDS011;41247;49.736;8.752;2022-09-03T17:41:34;3.40;;;1.95;;
55368;SDS011;41247;49.736;8.752;2022-09-03T17:45:48;4.53;;;2.05;;
55368;SDS011;41247;49.736;8.752;2022-09-03T18:02:00;2.05;;;1.73;;
55368;SDS011;41247;49.736;8.752;2022-09-03T18:09:44;2.67;;;2.05;;
55368;SDS011;41247;49.736;8.752;2022-09-03T18:17:45;2.55;;;1.95;;
55368;SDS011;41247;49.736;8.752;2022-09-03T18:21:37;3.10;;;2.28;;
55368;SDS011;41247;49.736;8.752;2022-09-03T18:25:18;4.53;;;2.38;;
55368;SDS011;41247;49.736;8.752;2022-09-03T18:29:06;2.30;;;1.90;;
55368;SDS011;41247;49.736;8.752;2022-09-03T18:33:04;2.85;;;2.40;;
55368;SDS011;41247;49.736;8.752;2022-09-03T18:36:44;2.10;;;1.98;;
55368;SDS011;41247;49.736;8.752;2022-09-03T18:40:27;4.07;;;2.42;;
55368;SDS011;41247;49.736;8.752;2022-09-03T18:44:21;3.25;;;2.63;;
55368;SDS011;41247;49.736;8.752;2022-09-03T18:52:54;4.38;;;2.25;;
55368;SDS011;41247;49.736;8.752;2022-09-03T18:56:43;3.70;;;2.97;;
55368;SDS011;41247;49.736;8.752;2022-09-03T19:00:29;3.55;;;2.60;;
55368;SDS011;41247;49.736;8.752;2022-09-03T19:04:26;2.72;;;2.35;;
55368;SDS011;41247;49.736;8.752;2022-09-03T19:08:37;5.28;;;2.40;;
55368;SDS011;41247;49.736;8.752;2022-09-03T19:17:01;3.78;;;2.50;;
55368;SDS011;41247;49.736;8.752;2022-09-03T19:21:32;2.78;;;2.40;;
55368;SDS011;41247;49.736;8.752;2022-09-03T19:25:23;2.65;;;2.45;;
55368;SDS011;41247;49.736;8.752;2022-09-03T19:29:09;3.03;;;2.67;;
55368;SDS011;41247;49.736;8.752;2022-09-03T19:37:24;4.10;;;2.65;;
55368;SDS011;41247;49.736;8.752;2022-09-03T19:41:43;3.65;;;2.60;;
55368;SDS011;41247;49.736;8.752;2022-09-03T19:45:45;3.40;;;2.65;;
55368;SDS011;41247;49.736;8.752;2022-09-03T19:53:49;3.28;;;2.90;;
55368;SDS011;41247;49.736;8.752;2022-09-03T19:57:31;3.88;;;2.58;;
55368;SDS011;41247;49.736;8.752;2022-09-03T20:01:11;4.70;;;2.63;;
55368;SDS011;41247;49.736;8.752;2022-09-03T20:04:59;4.22;;;2.50;;
55368;SDS011;41247;49.736;8.752;2022-09-03T20:08:42;3.22;;;2.47;;
55368;SDS011;41247;49.736;8.752;2022-09-03T20:12:24;2.90;;;2.28;;
55368;SDS011;41247;49.736;8.752;2022-09-03T20:16:27;3.85;;;2.20;;
55368;SDS011;41247;49.736;8.752;2022-09-03T20:20:36;6.43;;;1.92;;
55368;SDS011;41247;49.736;8.752;2022-09-03T20:32:10;4.07;;;2.50;;
55368;SDS011;41247;49.736;8.752;2022-09-03T20:48:01;2.67;;;2.10;;
55368;SDS011;41247;49.736;8.752;2022-09-03T20:51:57;3.88;;;2.25;;
55368;SDS011;41247;49.736;8.752;2022-09-03T20:55:45;1.80;;;1.70;;
55368;SDS011;41247;49.736;8.752;2022-09-03T21:03:14;2.70;;;2.28;;
55368;SDS011;41247;49.736;8.752;2022-09-03T21:15:22;4.30;;;2.33;;
55368;SDS011;41247;49.736;8.752;2022-09-03T21:19:51;2.67;;;2.47;;
55368;SDS011;41247;49.736;8.752;2022-09-03T21:28:16;3.75;;;1.83;;
55368;SDS011;41247;49.736;8.752;2022-09-03T21:32:21;2.50;;;2.20;;
55368;SDS011;41247;49.736;8.752;2022-09-03T21:36:23;2.80;;;2.50;;
55368;SDS011;41247;49.736;8.752;2022-09-03T21:40:08;3.13;;;2.70;;
55368;SDS011;41247;49.736;8.752;2022-09-03T21:44:14;3.17;;;2.60;;
55368;SDS011;41247;49.736;8.752;2022-09-03T21:48:15;3.35;;;2.40;;
55368;SDS011;41247;49.736;8.752;2022-09-03T21:52:13;3.05;;;2.30;;
55368;SDS011;41247;49.736;8.752;2022-09-03T21:56:06;2.97;;;2.33;;
55368;SDS011;41247;49.736;8.752;2022-09-03T22:00:25;3.60;;;2.58;;
55368;SDS011;41247;49.736;8.752;2022-09-03T22:04:07;4.00;;;2.30;;
55368;SDS011;41247;49.736;8.752;2022-09-03T22:16:24;2.50;;;2.30;;
55368;SDS011;41247;49.736;8.752;2022-09-03T22:20:32;3.88;;;3.10;;
55368;SDS011;41247;49.736;8.752;2022-09-03T22:36:26;3.33;;;3.03;;
55368;SDS011;41247;49.736;8.752;2022-09-03T22:40:24;3.92;;;3.20;;
55368;SDS011;41247;49.736;8.752;2022-09-03T22:52:59;4.50;;;3.25;;
55368;SDS011;41247;49.736;8.752;2022-09-03T22:57:17;4.57;;;4.03;;
55368;SDS011;41247;49.736;8.752;2022-09-03T23:01:22;7.63;;;4.22;;
55368;SDS011;41247;49.736;8.752;2022-09-03T23:05:26;4.57;;;3.92;;
55368;SDS011;41247;49.736;8.752;2022-09-03T23:09:14;3.67;;;3.38;;
55368;SDS011;41247;49.736;8.752;2022-09-03T23:16:51;5.35;;;3.45;;
55368;SDS011;41247;49.736;8.752;2022-09-03T23:20:46;3.50;;;3.20;;
55368;SDS011;41247;49.736;8.752;2022-09-03T23:24:39;3.40;;;2.90;;
55368;SDS011;41247;49.736;8.752;2022-09-03T23:28:39;5.38;;;2.78;;
55368;SDS011;41247;49.736;8.752;2022-09-03T23:32:27;4.50;;;3.30;;
55368;SDS011;41247;49.736;8.752;2022-09-03T23:40:46;4.72;;;3.55;;
55368;SDS011;41247;49.736;8.752;2022-09-03T23:48:26;4.72;;;3.10;;
55368;SDS011;41247;49.736;8.752;2022-09-03T23:52:39;3.45;;;2.63;;
55368;SDS011;41247;49.736;8.752;2022-09-03T23:56:47;4.50;;;2.97;;
